createdAt,value
2022-08-09T00:00:21.382Z,424
2022-08-09T00:01:15.352Z,427
2022-08-09T00:02:05.136Z,431
2022-08-09T00:02:56.913Z,426
2022-08-09T00:04:00.302Z,419
2022-08-09T00:04:40.573Z,421
2022-08-09T00:06:15.982Z,425
2022-08-09T00:06:24.259Z,434
2022-08-09T00:07:16.022Z,427
2022-08-09T00:08:09.947Z,431
2022-08-09T00:08:59.662Z,428
2022-08-09T00:09:51.447Z,424
2022-08-09T00:10:43.292Z,424
2022-08-09T00:12:03.104Z,425
2022-08-09T00:12:26.950Z,422
2022-08-09T00:13:18.776Z,423
2022-08-09T00:14:10.579Z,427
2022-08-09T00:15:06.789Z,422
2022-08-09T00:16:00.141Z,419
2022-08-09T00:16:46.053Z,425
2022-08-09T00:18:05.367Z,426
2022-08-09T00:18:29.698Z,430
2022-08-09T00:19:21.481Z,445
2022-08-09T00:20:13.334Z,451
2022-08-09T00:21:07.727Z,443
2022-08-09T00:21:57.205Z,453
2022-08-09T00:22:48.800Z,450
2022-08-09T00:23:54.768Z,447
2022-08-09T00:24:32.445Z,454
2022-08-09T00:25:32.042Z,450
2022-08-09T00:26:16.069Z,450
2022-08-09T00:27:07.903Z,446
2022-08-09T00:27:59.718Z,446
2022-08-09T00:28:52.760Z,444
2022-08-09T00:30:24.350Z,445
2022-08-09T00:30:35.164Z,445
2022-08-09T00:31:57.018Z,447
2022-08-09T00:32:25.358Z,449
2022-08-09T00:33:10.614Z,448
2022-08-09T00:34:02.551Z,448
2022-08-09T00:34:54.266Z,446
2022-08-09T00:35:46.101Z,444
2022-08-09T00:36:37.882Z,445
2022-08-09T00:37:32.270Z,444
2022-08-09T00:38:21.656Z,447
2022-08-09T00:40:09.447Z,448
2022-08-09T00:40:12.294Z,452
2022-08-09T00:40:58.084Z,456
2022-08-09T00:44:10.202Z,461
2022-08-09T00:44:11.477Z,448
2022-08-09T00:44:19.576Z,446
2022-08-09T00:44:26.600Z,449
2022-08-09T00:45:16.479Z,448
2022-08-09T00:46:07.902Z,444
2022-08-09T00:47:05.109Z,445
2022-08-09T00:47:51.503Z,446
2022-08-09T00:48:47.433Z,444
2022-08-09T00:49:36.871Z,447
2022-08-09T00:50:27.263Z,449
2022-08-09T00:51:18.806Z,441
2022-08-09T00:52:17.346Z,444
2022-08-09T00:53:10.571Z,439
2022-08-09T00:53:54.226Z,442
2022-08-09T00:54:46.046Z,440
2022-08-09T00:56:04.750Z,442
2022-08-09T00:56:29.665Z,442
2022-08-09T00:57:24.663Z,444
2022-08-09T00:58:14.652Z,444
2022-08-09T00:59:05.100Z,448
2022-08-09T00:59:56.911Z,449
2022-08-09T01:00:48.779Z,449
2022-08-09T01:01:44.583Z,449
2022-08-09T01:02:32.580Z,454
2022-08-09T01:03:24.104Z,459
2022-08-09T01:04:15.956Z,453
2022-08-09T01:05:14.384Z,463
2022-08-09T01:05:59.586Z,450
2022-08-09T01:06:54.736Z,448
2022-08-09T01:08:00.367Z,445
2022-08-09T01:08:35.035Z,485
2022-08-09T01:09:26.824Z,454
2022-08-09T01:10:18.668Z,450
2022-08-09T01:11:10.464Z,447
2022-08-09T01:12:02.289Z,437
2022-08-09T01:12:54.092Z,446
2022-08-09T01:13:58.567Z,436
2022-08-09T01:14:37.697Z,436
2022-08-09T01:15:29.429Z,438
2022-08-09T01:16:21.242Z,444
2022-08-09T01:17:13.159Z,437
2022-08-09T01:18:04.969Z,451
2022-08-09T01:19:01.969Z,443
2022-08-09T01:19:57.188Z,444
2022-08-09T01:20:40.387Z,440
2022-08-09T01:21:44.396Z,441
2022-08-09T01:22:24.058Z,453
2022-08-09T01:24:03.398Z,455
2022-08-09T01:24:07.633Z,451
2022-08-09T01:24:59.417Z,449
2022-08-09T01:25:51.392Z,449
2022-08-09T01:26:43.057Z,454
2022-08-09T01:27:34.866Z,447
2022-08-09T01:28:26.672Z,449
2022-08-09T01:29:18.500Z,447
2022-08-09T01:30:28.551Z,440
2022-08-09T01:31:02.119Z,442
2022-08-09T01:32:30.906Z,442
2022-08-09T01:32:46.275Z,455
2022-08-09T01:33:37.536Z,459
2022-08-09T01:34:29.364Z,455
2022-08-09T01:35:37.877Z,453
2022-08-09T01:36:13.552Z,451
2022-08-09T01:37:04.751Z,460
2022-08-09T01:38:09.525Z,452
2022-08-09T01:38:48.451Z,454
2022-08-09T01:39:40.261Z,456
2022-08-09T01:40:31.982Z,457
2022-08-09T01:41:26.022Z,453
2022-08-09T01:42:15.604Z,447
2022-08-09T01:43:07.419Z,455
2022-08-09T01:43:59.218Z,459
2022-08-09T01:44:50.992Z,461
2022-08-09T01:45:44.690Z,454
2022-08-09T01:46:34.656Z,453
2022-08-09T01:47:26.445Z,459
2022-08-09T01:48:18.263Z,457
2022-08-09T01:49:12.704Z,451
2022-08-09T01:50:01.809Z,452
2022-08-09T01:50:54.963Z,452
2022-08-09T01:51:53.809Z,449
2022-08-09T01:52:37.282Z,449
2022-08-09T01:53:41.134Z,457
2022-08-09T01:54:20.947Z,450
2022-08-09T01:55:12.707Z,447
2022-08-09T01:56:04.497Z,448
2022-08-09T01:56:56.789Z,448
2022-08-09T01:57:50.647Z,452
2022-08-09T01:58:39.920Z,452
2022-08-09T01:59:32.499Z,456
2022-08-09T02:00:35.509Z,454
2022-08-09T02:01:18.399Z,452
2022-08-09T02:02:07.207Z,441
2022-08-09T02:02:58.924Z,454
2022-08-09T02:03:50.739Z,454
2022-08-09T02:04:45.582Z,454
2022-08-09T02:05:38.223Z,454
2022-08-09T02:06:26.128Z,452
2022-08-09T02:08:39.693Z,456
2022-08-09T02:08:41.401Z,452
2022-08-09T02:09:01.485Z,462
2022-08-09T02:09:59.355Z,460
2022-08-09T02:10:51.268Z,451
2022-08-09T02:11:43.712Z,454
2022-08-09T02:12:28.743Z,453
2022-08-09T02:13:21.865Z,454
2022-08-09T02:14:15.884Z,453
2022-08-09T02:15:06.371Z,450
2022-08-09T02:15:56.398Z,448
2022-08-09T02:16:59.873Z,450
2022-08-09T02:18:09.665Z,447
2022-08-09T02:18:31.296Z,449
2022-08-09T02:19:23.153Z,450
2022-08-09T02:20:15.866Z,451
2022-08-09T02:21:06.767Z,449
2022-08-09T02:21:58.543Z,446
2022-08-09T02:22:50.357Z,453
2022-08-09T02:23:42.887Z,451
2022-08-09T02:24:33.978Z,447
2022-08-09T02:25:25.741Z,447
2022-08-09T02:26:25.040Z,454
2022-08-09T02:27:09.346Z,449
2022-08-09T02:28:04.133Z,453
2022-08-09T02:28:52.943Z,451
2022-08-09T02:29:44.777Z,449
2022-08-09T02:30:36.565Z,451
2022-08-09T02:31:28.427Z,449
2022-08-09T02:32:20.151Z,452
2022-08-09T02:33:14.514Z,453
2022-08-09T02:34:13.316Z,454
2022-08-09T02:34:57.669Z,448
2022-08-09T02:36:02.729Z,452
2022-08-09T02:36:39.174Z,456
2022-08-09T02:37:32.182Z,456
2022-08-09T02:38:28.730Z,458
2022-08-09T02:39:20.129Z,459
2022-08-09T02:40:10.554Z,457
2022-08-09T02:40:58.126Z,461
2022-08-09T02:41:49.937Z,458
2022-08-09T02:42:41.631Z,458
2022-08-09T02:43:54.225Z,459
2022-08-09T02:44:30.047Z,456
2022-08-09T02:45:17.154Z,453
2022-08-09T02:46:08.917Z,459
2022-08-09T02:47:00.714Z,456
2022-08-09T02:47:58.960Z,462
2022-08-09T02:48:46.225Z,466
2022-08-09T02:49:39.030Z,460
2022-08-09T02:50:27.896Z,462
2022-08-09T02:51:19.792Z,465
2022-08-09T02:52:11.435Z,463
2022-08-09T02:53:03.667Z,462
2022-08-09T02:54:01.412Z,463
2022-08-09T02:54:54.016Z,462
2022-08-09T02:55:53.644Z,450
2022-08-09T02:56:30.469Z,458
2022-08-09T02:57:23.215Z,460
2022-08-09T02:58:35.745Z,453
2022-08-09T02:59:05.924Z,461
2022-08-09T03:00:20.767Z,455
2022-08-09T03:00:58.460Z,458
2022-08-09T03:01:43.237Z,456
2022-08-09T03:02:33.168Z,458
2022-08-09T03:03:37.309Z,456
2022-08-09T03:04:19.798Z,453
2022-08-09T03:05:08.373Z,465
2022-08-09T03:06:00.183Z,461
2022-08-09T03:06:51.882Z,461
2022-08-09T03:07:43.752Z,459
2022-08-09T03:08:35.537Z,458
2022-08-09T03:09:27.353Z,461
2022-08-09T03:10:19.126Z,464
2022-08-09T03:11:10.918Z,462
2022-08-09T03:12:09.602Z,464
2022-08-09T03:12:54.493Z,460
2022-08-09T03:13:59.477Z,456
2022-08-09T03:14:38.257Z,455
2022-08-09T03:16:04.637Z,454
2022-08-09T03:16:21.591Z,458
2022-08-09T03:17:16.430Z,463
2022-08-09T03:18:09.759Z,466
2022-08-09T03:18:57.023Z,458
2022-08-09T03:19:58.054Z,461
2022-08-09T03:20:40.586Z,457
2022-08-09T03:21:36.533Z,458
2022-08-09T03:22:30.916Z,459
2022-08-09T03:23:24.238Z,456
2022-08-09T03:24:07.737Z,461
2022-08-09T03:25:06.295Z,465
2022-08-09T03:25:58.307Z,461
2022-08-09T03:26:45.215Z,463
2022-08-09T03:27:44.613Z,462
2022-08-09T03:28:26.685Z,461
2022-08-09T03:29:23.072Z,457
2022-08-09T03:30:10.257Z,453
2022-08-09T03:31:04.430Z,460
2022-08-09T03:31:59.854Z,463
2022-08-09T03:32:45.670Z,463
2022-08-09T03:33:53.471Z,452
2022-08-09T03:34:29.181Z,463
2022-08-09T03:35:24.850Z,457
2022-08-09T03:36:16.729Z,461
2022-08-09T03:37:10.686Z,459
2022-08-09T03:37:58.745Z,456
2022-08-09T03:38:48.129Z,457
2022-08-09T03:39:39.944Z,455
2022-08-09T03:40:31.681Z,454
2022-08-09T03:41:29.886Z,457
2022-08-09T03:42:15.273Z,457
2022-08-09T03:43:07.033Z,456
2022-08-09T03:44:08.202Z,461
2022-08-09T03:44:50.636Z,458
2022-08-09T03:46:04.341Z,463
2022-08-09T03:46:34.223Z,462
2022-08-09T03:47:25.979Z,460
2022-08-09T03:48:18.761Z,462
2022-08-09T03:49:09.808Z,454
2022-08-09T03:50:01.244Z,463
2022-08-09T03:50:53.121Z,460
2022-08-09T03:51:58.274Z,453
2022-08-09T03:52:36.676Z,458
2022-08-09T03:53:32.266Z,456
2022-08-09T03:54:29.338Z,457
2022-08-09T03:55:14.318Z,460
2022-08-09T03:56:03.832Z,458
2022-08-09T03:56:57.968Z,451
2022-08-09T03:57:57.575Z,454
2022-08-09T03:58:39.195Z,446
2022-08-09T03:59:42.926Z,453
2022-08-09T04:00:22.822Z,454
2022-08-09T04:01:14.635Z,453
2022-08-09T04:02:06.292Z,454
2022-08-09T04:02:58.102Z,458
2022-08-09T04:04:02.274Z,458
2022-08-09T04:04:45.602Z,462
2022-08-09T04:05:33.430Z,451
2022-08-09T04:06:25.218Z,460
2022-08-09T04:07:16.989Z,457
2022-08-09T04:08:08.885Z,458
2022-08-09T04:09:00.560Z,457
2022-08-09T04:09:53.745Z,453
2022-08-09T04:10:44.114Z,457
2022-08-09T04:11:35.918Z,454
2022-08-09T04:12:40.669Z,457
2022-08-09T04:13:20.825Z,454
2022-08-09T04:14:54.219Z,457
2022-08-09T04:15:11.710Z,457
2022-08-09T04:16:19.290Z,463
2022-08-09T04:16:46.605Z,461
2022-08-09T04:17:38.383Z,466
2022-08-09T04:18:30.169Z,455
2022-08-09T04:19:30.092Z,453
2022-08-09T04:20:13.755Z,456
2022-08-09T04:21:05.546Z,455
2022-08-09T04:21:57.330Z,456
2022-08-09T04:22:50.243Z,462
2022-08-09T04:23:40.876Z,458
2022-08-09T04:24:33.266Z,467
2022-08-09T04:25:24.396Z,465
2022-08-09T04:26:16.207Z,460
2022-08-09T04:27:08.008Z,467
2022-08-09T04:28:02.456Z,474
2022-08-09T04:28:54.050Z,473
2022-08-09T04:29:49.849Z,478
2022-08-09T04:30:35.141Z,474
2022-08-09T04:31:37.629Z,469
2022-08-09T04:32:31.412Z,471
2022-08-09T04:33:10.506Z,472
2022-08-09T04:34:02.355Z,473
2022-08-09T04:34:57.626Z,479
2022-08-09T04:35:45.907Z,473
2022-08-09T04:36:40.374Z,472
2022-08-09T04:37:45.420Z,473
2022-08-09T04:38:21.306Z,478
2022-08-09T04:39:13.187Z,478
2022-08-09T04:40:04.909Z,472
2022-08-09T04:40:57.266Z,477
2022-08-09T04:41:48.529Z,473
2022-08-09T04:42:40.345Z,477
2022-08-09T04:43:33.667Z,482
2022-08-09T04:44:24.001Z,480
2022-08-09T04:45:15.768Z,478
2022-08-09T04:46:07.583Z,482
2022-08-09T04:47:04.590Z,477
2022-08-09T04:48:00.984Z,481
2022-08-09T04:48:50.493Z,485
2022-08-09T04:49:52.755Z,484
2022-08-09T04:50:35.149Z,482
2022-08-09T04:51:18.466Z,484
2022-08-09T04:52:10.278Z,484
2022-08-09T04:53:02.056Z,486
2022-08-09T04:53:54.292Z,485
2022-08-09T04:54:45.749Z,489
2022-08-09T04:55:40.278Z,486
2022-08-09T04:56:29.380Z,484
2022-08-09T04:57:24.186Z,494
2022-08-09T04:58:13.035Z,494
2022-08-09T04:59:12.965Z,489
2022-08-09T04:59:56.657Z,488
2022-08-09T05:00:48.509Z,496
2022-08-09T05:01:40.300Z,489
2022-08-09T05:02:32.496Z,491
2022-08-09T05:03:39.898Z,488
2022-08-09T05:04:15.841Z,495
2022-08-09T05:05:09.787Z,494
2022-08-09T05:06:04.426Z,494
2022-08-09T05:06:51.319Z,496
2022-08-09T05:07:43.043Z,496
2022-08-09T05:08:34.989Z,496
2022-08-09T05:09:42.087Z,497
2022-08-09T05:10:18.520Z,494
2022-08-09T05:11:10.348Z,499
2022-08-09T05:12:02.141Z,504
2022-08-09T05:12:53.983Z,500
2022-08-09T05:13:45.837Z,510
2022-08-09T05:14:37.632Z,506
2022-08-09T05:15:39.057Z,502
2022-08-09T05:16:21.286Z,503
2022-08-09T05:18:36.646Z,500
2022-08-09T05:18:39.508Z,511
2022-08-09T05:18:58.493Z,510
2022-08-09T05:19:48.586Z,516
2022-08-09T05:20:40.438Z,512
2022-08-09T05:21:36.665Z,519
2022-08-09T05:22:28.270Z,515
2022-08-09T05:23:53.844Z,519
2022-08-09T05:24:08.176Z,519
2022-08-09T05:25:00.851Z,519
2022-08-09T05:25:51.410Z,527
2022-08-09T05:26:46.293Z,516
2022-08-09T05:27:35.057Z,516
2022-08-09T05:28:26.866Z,519
2022-08-09T05:29:21.933Z,519
2022-08-09T05:30:10.529Z,526
2022-08-09T05:31:09.663Z,526
2022-08-09T05:31:56.678Z,522
2022-08-09T05:32:50.759Z,522
2022-08-09T05:33:42.428Z,519
2022-08-09T05:34:31.142Z,531
2022-08-09T05:35:22.073Z,536
2022-08-09T05:36:13.364Z,527
2022-08-09T05:37:06.723Z,522
2022-08-09T05:37:57.023Z,516
2022-08-09T05:38:48.839Z,526
2022-08-09T05:39:42.778Z,518
2022-08-09T05:40:32.489Z,523
2022-08-09T05:41:24.348Z,514
2022-08-09T05:42:17.412Z,521
2022-08-09T05:43:08.007Z,515
2022-08-09T05:43:59.822Z,516
2022-08-09T05:44:52.084Z,521
2022-08-09T05:45:55.575Z,521
2022-08-09T05:46:35.325Z,522
2022-08-09T05:47:30.110Z,524
2022-08-09T05:48:19.005Z,523
2022-08-09T05:50:10.975Z,525
2022-08-09T05:50:25.547Z,526
2022-08-09T05:51:16.615Z,522
2022-08-09T05:51:46.670Z,530
2022-08-09T05:52:38.627Z,527
2022-08-09T05:53:33.384Z,530
2022-08-09T05:54:21.743Z,530
2022-08-09T05:55:20.440Z,524
2022-08-09T05:56:05.477Z,540
2022-08-09T05:56:57.331Z,533
2022-08-09T05:57:56.419Z,533
2022-08-09T05:58:41.018Z,528
2022-08-09T05:59:32.820Z,540
2022-08-09T06:00:24.623Z,529
2022-08-09T06:01:16.688Z,529
2022-08-09T06:02:08.339Z,534
2022-08-09T06:03:00.286Z,543
2022-08-09T06:03:58.529Z,531
2022-08-09T06:04:44.517Z,536
2022-08-09T06:05:58.239Z,545
2022-08-09T06:06:27.495Z,557
2022-08-09T06:07:21.483Z,536
2022-08-09T06:08:11.458Z,542
2022-08-09T06:09:03.042Z,537
2022-08-09T06:10:02.800Z,536
2022-08-09T06:10:46.693Z,526
2022-08-09T06:11:41.207Z,538
2022-08-09T06:12:30.360Z,533
2022-08-09T06:13:22.116Z,540
2022-08-09T06:14:14.035Z,534
2022-08-09T06:15:09.497Z,526
2022-08-09T06:15:57.715Z,529
2022-08-09T06:16:52.312Z,533
2022-08-09T06:17:41.393Z,528
2022-08-09T06:18:33.423Z,528
2022-08-09T06:19:25.088Z,529
2022-08-09T06:20:18.353Z,523
2022-08-09T06:21:08.729Z,528
2022-08-09T06:22:00.555Z,529
2022-08-09T06:22:52.404Z,537
2022-08-09T06:23:58.725Z,530
2022-08-09T06:24:36.078Z,535
2022-08-09T06:25:27.921Z,535
2022-08-09T06:26:20.299Z,535
2022-08-09T06:27:11.497Z,553
2022-08-09T06:28:03.442Z,540
2022-08-09T06:29:00.746Z,547
2022-08-09T06:29:48.092Z,561
2022-08-09T06:30:38.935Z,556
2022-08-09T06:31:39.996Z,542
2022-08-09T06:33:00.929Z,545
2022-08-09T06:33:39.673Z,546
2022-08-09T06:34:06.294Z,554
2022-08-09T06:34:58.150Z,516
2022-08-09T06:35:56.917Z,506
2022-08-09T06:36:43.974Z,512
2022-08-09T06:37:53.129Z,520
2022-08-09T06:38:37.256Z,520
2022-08-09T06:39:17.402Z,515
2022-08-09T06:40:21.716Z,523
2022-08-09T06:41:01.007Z,530
2022-08-09T06:42:09.161Z,522
2022-08-09T06:42:46.821Z,538
2022-08-09T06:43:36.540Z,524
2022-08-09T06:44:28.340Z,538
2022-08-09T06:46:07.568Z,537
2022-08-09T06:46:39.154Z,525
2022-08-09T06:47:03.841Z,544
2022-08-09T06:47:58.042Z,535
2022-08-09T06:48:47.590Z,539
2022-08-09T06:50:11.251Z,532
2022-08-09T06:50:31.911Z,544
2022-08-09T06:51:23.095Z,553
2022-08-09T06:52:15.922Z,553
2022-08-09T06:53:06.789Z,542
2022-08-09T06:54:00.943Z,539
2022-08-09T06:54:50.472Z,532
2022-08-09T06:55:42.341Z,539
2022-08-09T06:56:34.166Z,545
2022-08-09T06:58:01.043Z,544
2022-08-09T06:58:40.711Z,530
2022-08-09T07:00:49.453Z,537
2022-08-09T07:00:50.916Z,542
2022-08-09T07:00:58.561Z,531
2022-08-09T07:01:54.110Z,535
2022-08-09T07:02:37.291Z,538
2022-08-09T07:03:29.109Z,550
2022-08-09T07:04:20.771Z,534
2022-08-09T07:05:12.525Z,540
2022-08-09T07:06:05.500Z,541
2022-08-09T07:07:00.597Z,527
2022-08-09T07:07:59.662Z,543
2022-08-09T07:08:39.987Z,551
2022-08-09T07:09:53.714Z,551
2022-08-09T07:10:31.230Z,543
2022-08-09T07:11:23.306Z,547
2022-08-09T07:12:07.368Z,561
2022-08-09T07:12:59.215Z,548
2022-08-09T07:14:05.240Z,539
2022-08-09T07:14:42.919Z,537
2022-08-09T07:16:35.282Z,535
2022-08-09T07:16:43.362Z,529
2022-08-09T07:17:18.443Z,529
2022-08-09T07:18:10.414Z,549
2022-08-09T07:19:02.068Z,551
2022-08-09T07:19:55.442Z,542
2022-08-09T07:20:47.823Z,542
2022-08-09T07:21:37.700Z,545
2022-08-09T07:22:35.409Z,552
2022-08-09T07:23:21.391Z,535
2022-08-09T07:24:13.234Z,555
2022-08-09T07:25:09.496Z,549
2022-08-09T07:26:02.832Z,549
2022-08-09T07:26:50.918Z,542
2022-08-09T07:27:42.367Z,539
2022-08-09T07:28:34.713Z,534
2022-08-09T07:29:24.314Z,549
2022-08-09T07:30:16.170Z,547
2022-08-09T07:31:08.005Z,547
2022-08-09T07:31:59.866Z,547
2022-08-09T07:32:51.744Z,558
2022-08-09T07:33:53.283Z,551
2022-08-09T07:34:35.399Z,551
2022-08-09T07:35:27.268Z,544
2022-08-09T07:36:19.107Z,553
2022-08-09T07:37:16.339Z,552
2022-08-09T07:38:02.813Z,554
2022-08-09T07:39:00.474Z,567
2022-08-09T07:39:46.579Z,567
2022-08-09T07:41:09.939Z,570
2022-08-09T07:41:33.174Z,565
2022-08-09T07:42:21.971Z,569
2022-08-09T07:43:16.604Z,573
2022-08-09T07:44:05.763Z,577
2022-08-09T07:45:01.544Z,575
2022-08-09T07:45:49.461Z,580
2022-08-09T07:46:41.306Z,578
2022-08-09T07:47:49.609Z,584
2022-08-09T07:48:30.077Z,567
2022-08-09T07:49:16.855Z,573
2022-08-09T07:50:09.528Z,567
2022-08-09T07:51:10.116Z,573
2022-08-09T07:52:06.365Z,561
2022-08-09T07:52:44.269Z,565
2022-08-09T07:53:36.405Z,575
2022-08-09T07:54:30.162Z,578
2022-08-09T07:55:19.798Z,574
2022-08-09T07:56:26.626Z,586
2022-08-09T07:57:03.470Z,580
2022-08-09T07:57:55.368Z,574
2022-08-09T07:58:47.363Z,581
2022-08-09T07:59:45.888Z,586
2022-08-09T08:00:36.367Z,580
2022-08-09T08:01:25.490Z,579
2022-08-09T08:02:19.433Z,569
2022-08-09T08:03:08.193Z,580
2022-08-09T08:03:58.324Z,590
2022-08-09T08:04:53.664Z,588
2022-08-09T08:05:57.858Z,587
2022-08-09T08:06:35.063Z,589
2022-08-09T08:08:43.397Z,601
2022-08-09T08:09:01.494Z,595
2022-08-09T08:09:34.321Z,602
2022-08-09T08:10:08.782Z,602
2022-08-09T08:11:15.255Z,601
2022-08-09T08:12:25.040Z,617
2022-08-09T08:12:37.104Z,616
2022-08-09T08:13:28.708Z,611
2022-08-09T08:14:21.167Z,612
2022-08-09T08:15:13.840Z,621
2022-08-09T08:16:04.265Z,619
2022-08-09T08:17:00.704Z,637
2022-08-09T08:17:53.493Z,630
2022-08-09T08:18:39.830Z,624
2022-08-09T08:19:31.627Z,637
2022-08-09T08:20:29.461Z,632
2022-08-09T08:21:15.398Z,630
2022-08-09T08:22:07.243Z,646
2022-08-09T08:23:03.637Z,645
2022-08-09T08:23:50.957Z,645
2022-08-09T08:24:47.236Z,635
2022-08-09T08:25:40.024Z,661
2022-08-09T08:26:54.456Z,643
2022-08-09T08:27:18.695Z,639
2022-08-09T08:28:10.248Z,644
2022-08-09T08:29:02.029Z,646
2022-08-09T08:29:53.930Z,659
2022-08-09T08:30:46.791Z,645
2022-08-09T08:32:02.512Z,645
2022-08-09T08:32:29.929Z,642
2022-08-09T08:33:24.350Z,657
2022-08-09T08:34:14.071Z,639
2022-08-09T08:35:05.065Z,644
2022-08-09T08:35:59.143Z,641
2022-08-09T08:36:48.796Z,642
2022-08-09T08:37:41.631Z,647
2022-08-09T08:38:32.484Z,659
2022-08-09T08:39:24.430Z,651
2022-08-09T08:40:16.202Z,640
2022-08-09T08:41:08.066Z,645
2022-08-09T08:41:59.914Z,643
2022-08-09T08:42:51.705Z,640
2022-08-09T08:43:43.624Z,646
2022-08-09T08:44:36.090Z,661
2022-08-09T08:45:36.729Z,653
2022-08-09T08:46:33.584Z,648
2022-08-09T08:47:12.819Z,641
2022-08-09T08:48:02.910Z,642
2022-08-09T08:48:54.750Z,644
2022-08-09T08:49:49.277Z,641
2022-08-09T08:50:38.469Z,642
2022-08-09T08:51:40.263Z,645
2022-08-09T08:52:57.749Z,641
2022-08-09T08:53:15.864Z,643
2022-08-09T08:54:05.891Z,643
2022-08-09T08:54:57.766Z,643
2022-08-09T08:55:52.649Z,650
2022-08-09T08:56:41.462Z,646
2022-08-09T08:57:34.903Z,654
2022-08-09T08:58:27.342Z,648
2022-08-09T08:59:19.342Z,652
2022-08-09T09:00:17.280Z,656
2022-08-09T09:01:00.823Z,647
2022-08-09T09:01:57.437Z,655
2022-08-09T09:02:44.606Z,645
2022-08-09T09:03:37.733Z,651
2022-08-09T09:04:28.160Z,655
2022-08-09T09:05:20.037Z,651
2022-08-09T09:06:11.802Z,649
2022-08-09T09:07:03.750Z,652
2022-08-09T09:07:55.589Z,655
2022-08-09T09:08:52.615Z,659
2022-08-09T09:09:58.683Z,662
2022-08-09T09:10:31.184Z,656
2022-08-09T09:11:23.014Z,680
2022-08-09T09:12:16.542Z,682
2022-08-09T09:13:09.590Z,686
2022-08-09T09:13:58.766Z,692
2022-08-09T09:14:50.464Z,682
2022-08-09T09:15:42.229Z,675
2022-08-09T09:16:35.075Z,674
2022-08-09T09:17:26.020Z,674
2022-08-09T09:18:17.862Z,674
2022-08-09T09:19:40.156Z,674
2022-08-09T09:20:01.590Z,673
2022-08-09T09:20:53.452Z,671
2022-08-09T09:21:46.923Z,668
2022-08-09T09:22:37.376Z,672
2022-08-09T09:23:38.024Z,670
2022-08-09T09:24:21.877Z,669
2022-08-09T09:26:01.566Z,660
2022-08-09T09:26:12.219Z,659
2022-08-09T09:26:56.439Z,656
2022-08-09T09:28:05.631Z,662
2022-08-09T09:29:04.177Z,659
2022-08-09T09:30:05.385Z,655
2022-08-09T09:30:38.154Z,664
2022-08-09T09:31:17.245Z,658
2022-08-09T09:32:15.262Z,676
2022-08-09T09:32:59.495Z,688
2022-08-09T09:33:57.021Z,688
2022-08-09T09:34:44.709Z,694
2022-08-09T09:35:35.042Z,688
2022-08-09T09:36:26.897Z,692
2022-08-09T09:37:18.739Z,720
2022-08-09T09:38:10.605Z,696
2022-08-09T09:39:02.372Z,682
2022-08-09T09:39:56.751Z,680
2022-08-09T09:40:46.573Z,684
2022-08-09T09:41:49.280Z,688
2022-08-09T09:42:30.739Z,684
2022-08-09T09:43:21.784Z,690
2022-08-09T09:44:15.631Z,689
2022-08-09T09:45:05.472Z,686
2022-08-09T09:46:38.966Z,694
2022-08-09T09:46:52.090Z,692
2022-08-09T09:47:56.246Z,699
2022-08-09T09:48:32.913Z,694
2022-08-09T09:49:49.882Z,707
2022-08-09T09:50:17.510Z,710
2022-08-09T09:51:11.692Z,710
2022-08-09T09:52:00.372Z,715
2022-08-09T09:52:52.279Z,719
2022-08-09T09:54:01.228Z,723
2022-08-09T09:54:35.933Z,729
2022-08-09T09:55:33.160Z,720
2022-08-09T09:56:31.675Z,731
2022-08-09T09:58:02.530Z,718
2022-08-09T09:58:16.630Z,730
2022-08-09T09:58:55.248Z,733
2022-08-09T09:59:47.105Z,734
2022-08-09T10:00:38.978Z,729
2022-08-09T10:01:38.207Z,724
2022-08-09T10:02:22.710Z,731
2022-08-09T10:03:14.609Z,727
2022-08-09T10:04:09.677Z,730
2022-08-09T10:04:58.277Z,728
2022-08-09T10:06:03.911Z,728
2022-08-09T10:06:42.975Z,720
2022-08-09T10:07:34.175Z,719
2022-08-09T10:08:27.655Z,726
2022-08-09T10:09:22.086Z,728
2022-08-09T10:10:09.433Z,725
2022-08-09T10:11:06.964Z,725
2022-08-09T10:12:11.742Z,726
2022-08-09T10:12:49.854Z,724
2022-08-09T10:13:45.328Z,720
2022-08-09T10:14:31.904Z,727
2022-08-09T10:15:50.630Z,725
2022-08-09T10:16:58.287Z,726
2022-08-09T10:17:38.977Z,719
2022-08-09T10:17:57.008Z,722
2022-08-09T10:18:51.312Z,724
2022-08-09T10:19:39.938Z,723
2022-08-09T10:20:35.545Z,722
2022-08-09T10:21:23.665Z,726
2022-08-09T10:22:15.524Z,720
2022-08-09T10:23:07.369Z,723
2022-08-09T10:23:59.220Z,721
2022-08-09T10:24:51.092Z,723
2022-08-09T10:26:06.517Z,723
2022-08-09T10:26:34.811Z,715
2022-08-09T10:27:34.714Z,725
2022-08-09T10:28:19.079Z,722
2022-08-09T10:29:21.002Z,717
2022-08-09T10:30:43.499Z,721
2022-08-09T10:32:37.387Z,719
2022-08-09T10:32:40.403Z,717
2022-08-09T10:34:08.567Z,715
2022-08-09T10:34:33.082Z,715
2022-08-09T10:35:13.440Z,719
2022-08-09T10:36:05.285Z,719
2022-08-09T10:36:57.158Z,715
2022-08-09T10:37:49.009Z,707
2022-08-09T10:38:56.441Z,720
2022-08-09T10:39:40.304Z,724
2022-08-09T10:40:34.852Z,718
2022-08-09T10:41:16.464Z,716
2022-08-09T10:42:08.336Z,712
2022-08-09T10:43:00.197Z,713
2022-08-09T10:43:59.331Z,714
2022-08-09T10:44:43.910Z,717
2022-08-09T10:45:42.323Z,718
2022-08-09T10:46:27.615Z,712
2022-08-09T10:48:19.335Z,716
2022-08-09T10:48:19.402Z,714
2022-08-09T10:49:03.227Z,716
2022-08-09T10:49:55.073Z,713
2022-08-09T10:50:46.942Z,717
2022-08-09T10:51:40.782Z,714
2022-08-09T10:52:30.758Z,715
2022-08-09T10:53:23.219Z,714
2022-08-09T10:54:14.383Z,712
2022-08-09T10:55:06.238Z,715
2022-08-09T10:56:00.238Z,713
2022-08-09T10:56:49.966Z,711
2022-08-09T10:57:41.947Z,711
2022-08-09T10:58:34.798Z,715
2022-08-09T10:59:31.398Z,707
2022-08-09T11:00:17.429Z,711
2022-08-09T11:03:03.326Z,709
2022-08-09T11:03:15.622Z,708
2022-08-09T11:03:16.176Z,709
2022-08-09T11:03:51.472Z,711
2022-08-09T11:04:36.859Z,710
2022-08-09T11:05:30.204Z,704
2022-08-09T11:06:20.486Z,705
2022-08-09T11:07:12.288Z,707
2022-08-09T11:08:04.212Z,706
2022-08-09T11:08:59.647Z,709
2022-08-09T11:09:48.891Z,704
2022-08-09T11:10:39.810Z,703
2022-08-09T11:11:31.665Z,705
2022-08-09T11:12:29.479Z,706
2022-08-09T11:13:49.388Z,705
2022-08-09T11:14:07.246Z,705
2022-08-09T11:14:59.130Z,706
2022-08-09T11:16:04.773Z,707
2022-08-09T11:16:42.858Z,707
2022-08-09T11:17:34.720Z,702
2022-08-09T11:18:26.590Z,711
2022-08-09T11:19:18.621Z,707
2022-08-09T11:20:20.403Z,704
2022-08-09T11:21:02.101Z,703
2022-08-09T11:21:55.080Z,703
2022-08-09T11:22:45.908Z,706
2022-08-09T11:23:37.783Z,708
2022-08-09T11:24:29.739Z,706
2022-08-09T11:25:25.916Z,701
2022-08-09T11:26:13.361Z,702
2022-08-09T11:27:06.748Z,697
2022-08-09T11:28:09.226Z,701
2022-08-09T11:28:54.465Z,700
2022-08-09T11:30:04.405Z,702
2022-08-09T11:30:34.417Z,704
2022-08-09T11:31:36.465Z,698
2022-08-09T11:32:16.427Z,703
2022-08-09T11:33:08.274Z,698
2022-08-09T11:34:00.143Z,700
2022-08-09T11:34:51.985Z,697
2022-08-09T11:35:49.480Z,698
2022-08-09T11:36:36.857Z,696
2022-08-09T11:37:31.259Z,701
2022-08-09T11:38:19.465Z,699
2022-08-09T11:39:11.489Z,699
2022-08-09T11:40:03.101Z,696
2022-08-09T11:40:55.129Z,695
2022-08-09T11:41:46.917Z,699
2022-08-09T11:42:38.777Z,698
2022-08-09T11:43:32.328Z,697
2022-08-09T11:44:22.456Z,698
2022-08-09T11:45:14.364Z,694
2022-08-09T11:46:06.259Z,699
2022-08-09T11:46:58.116Z,696
2022-08-09T11:47:49.971Z,700
2022-08-09T11:48:41.824Z,691
2022-08-09T11:49:42.751Z,700
2022-08-09T11:50:55.302Z,697
2022-08-09T11:52:49.440Z,692
2022-08-09T11:52:59.166Z,694
2022-08-09T11:53:57.940Z,688
2022-08-09T11:53:59.695Z,693
2022-08-09T11:54:44.889Z,696